VIP Ground Handling & Aviation Services

 

 
Airport

KEFALONIA (EFL)

Ground Handling Services – EFL/LGKF

VIP Ground Handling

State Ground Handling

Military Ground Handling

Slot & PPR Coordination

Fuel Arrangements

Crew Accommodation Arrangements

Crew Transportation

Customs & Immigration Assistance

Executive Terminal Services

Crew Lounge

Flight Planning, Weather Briefing and NOTAMs

Catering Arrangements

Security Services

Aircraft Maintenance

Airport Customs & Immigration

Concierge Services

VIP Meet & Greet

Helicopter Transfers

Chauffeur Services

Aircraft Charter

Yacht Charter

Hire & Rental

Entertainment & Hospitality

Health & Beauty

Delivery Services

Conference & Meeting rooms

Kefalonia Airport “Anna Pollatou”, Kefalonia 281 00

+30 210 35 33 331 (24/7)

+30 694 6200 300 (24/7)

greece@alphajetservices.com

Kefalonia Airport
Airport Type
•Civil
Operating Hours
•Check NOTAMS / Contact Us
Fuel Available
•JET A1
Fire Category
•6
Approaches
•VOR / DME NDB
Available data for LGKF from the past 2 hours
KEFALLINIA
Metar
LGKF 260950Z 27004KT CAVOK 32/22 Q1014

09:50 UTC

Wind: 270° 4kt

Visibility:

Sky:

Temp: 32 deg C / 89.6 deg F

Dewpoint: 22 deg C / 71.6 deg F

Pressure: 1014 hPa

TAF
TAF LGKF 260800Z 2609/2618 VRB05KT 9999 FEW025 BECMG 2613/2615 32012KT